createdAt,value
2023-02-19T00:01:11.802Z,100615.72
2023-02-19T00:04:20.057Z,100597.41
2023-02-19T00:07:23.179Z,100598.97
2023-02-19T00:10:26.098Z,100593.72
2023-02-19T00:13:29.578Z,100587.44
2023-02-19T00:16:33.635Z,100597.03
2023-02-19T00:19:36.483Z,100594.22
2023-02-19T00:22:39.666Z,100596.19
2023-02-19T00:25:42.460Z,100598.06
2023-02-19T00:28:47.341Z,100592.34
2023-02-19T00:31:50.996Z,100586.41
2023-02-19T00:34:54.256Z,100582.44
2023-02-19T00:37:57.107Z,100596.13
2023-02-19T00:41:00.660Z,100589.41
2023-02-19T00:44:08.468Z,100590.63
2023-02-19T00:47:11.447Z,100590.09
2023-02-19T00:50:16.250Z,100586.53
2023-02-19T00:53:19.368Z,100588.22
2023-02-19T00:56:22.571Z,100590.34
2023-02-19T00:59:25.643Z,100592.13
2023-02-19T01:02:28.774Z,100583.66
2023-02-19T01:05:31.790Z,100582.53
2023-02-19T01:08:39.368Z,100575.63
2023-02-19T01:11:42.377Z,100576.09
2023-02-19T01:14:45.487Z,100576.44
2023-02-19T01:17:48.420Z,100579.72
2023-02-19T01:20:52.263Z,100563.25
2023-02-19T01:23:55.999Z,100557.22
2023-02-19T01:27:01.332Z,100555.69
2023-02-19T01:30:04.747Z,100562.78
2023-02-19T01:33:12.705Z,100563.81
2023-02-19T01:36:16.220Z,100561.91
2023-02-19T01:39:19.410Z,100560.34
2023-02-19T01:42:22.631Z,100564.63
2023-02-19T01:45:31.062Z,100564.78
2023-02-19T01:48:38.424Z,100560.94
2023-02-19T01:51:49.340Z,100575.69
2023-02-19T01:54:55.332Z,100556.09
2023-02-19T01:57:59.207Z,100565.63
2023-02-19T02:01:04.662Z,100566.78
2023-02-19T02:04:11.150Z,100564.47
2023-02-19T02:07:33.166Z,100568.66
2023-02-19T02:10:36.961Z,100565.66
2023-02-19T02:13:40.604Z,100563.69
2023-02-19T02:17:13.046Z,100563.31
2023-02-19T02:20:16.243Z,100564.41
2023-02-19T02:23:28.063Z,100560.63
2023-02-19T02:26:42.154Z,100560.97
2023-02-19T02:29:51.608Z,100554.66
2023-02-19T02:33:00.431Z,100553.03
2023-02-19T02:36:13.037Z,100556.34
2023-02-19T02:39:24.479Z,100552.84
2023-02-19T02:42:27.568Z,100538.66
2023-02-19T02:45:39.953Z,100539.28
2023-02-19T02:49:05.401Z,100535.59
2023-02-19T02:52:31.087Z,100539.91
2023-02-19T02:55:38.114Z,100535.16
2023-02-19T02:58:43.323Z,100523.91
2023-02-19T03:02:14.271Z,100521.47
2023-02-19T03:05:41.520Z,100501.06
2023-02-19T03:09:00.341Z,100504.00
2023-02-19T03:12:24.313Z,100507.09
2023-02-19T03:15:52.602Z,100501.78
2023-02-19T03:19:18.160Z,100505.47
2023-02-19T03:22:30.210Z,100515.88
2023-02-19T03:25:56.800Z,100521.53
2023-02-19T03:29:26.603Z,100536.72
2023-02-19T03:33:03.034Z,100533.50
2023-02-19T03:36:10.481Z,100538.56
2023-02-19T03:39:17.753Z,100541.13
2023-02-19T03:42:26.082Z,100548.56
2023-02-19T03:45:38.801Z,100550.06
2023-02-19T03:48:53.400Z,100549.69
2023-02-19T03:52:11.446Z,100558.53
2023-02-19T03:55:27.256Z,100561.47
2023-02-19T03:58:40.380Z,100562.97
2023-02-19T04:02:00.905Z,100564.19
2023-02-19T04:05:11.637Z,100561.28
2023-02-19T04:08:19.363Z,100550.81
2023-02-19T04:11:30.630Z,100555.78
2023-02-19T04:14:47.498Z,100557.78
2023-02-19T04:18:22.795Z,100564.88
2023-02-19T04:21:29.510Z,100563.69
2023-02-19T04:24:38.917Z,100557.94
2023-02-19T04:27:45.054Z,100559.63
2023-02-19T04:30:48.282Z,100554.97
2023-02-19T04:33:51.257Z,100556.88
2023-02-19T04:36:54.262Z,100571.25
2023-02-19T04:39:57.089Z,100570.06
2023-02-19T04:43:00.433Z,100572.31
2023-02-19T04:46:03.718Z,100559.88
2023-02-19T04:49:06.748Z,100563.03
2023-02-19T04:52:10.190Z,100569.63
2023-02-19T04:55:13.099Z,100561.91
2023-02-19T04:58:15.951Z,100560.09
2023-02-19T05:01:19.062Z,100565.94
2023-02-19T05:04:22.089Z,100569.38
2023-02-19T05:07:25.055Z,100573.69
2023-02-19T05:10:27.991Z,100577.31
2023-02-19T05:13:31.782Z,100582.00
2023-02-19T05:16:35.053Z,100574.19
2023-02-19T05:19:38.011Z,100575.69
2023-02-19T05:22:41.023Z,100580.81
2023-02-19T05:25:44.061Z,100590.09
2023-02-19T05:28:49.649Z,100585.81
2023-02-19T05:31:52.698Z,100569.19
2023-02-19T05:34:55.702Z,100577.69
2023-02-19T05:38:00.738Z,100572.19
2023-02-19T05:41:08.883Z,100581.19
2023-02-19T05:44:11.912Z,100584.78
2023-02-19T05:47:14.841Z,100584.34
2023-02-19T05:50:18.773Z,100586.50
2023-02-19T05:53:21.631Z,100595.75
2023-02-19T05:56:33.780Z,100593.03
2023-02-19T05:59:36.686Z,100598.13
2023-02-19T06:02:39.721Z,100585.28
2023-02-19T06:05:42.713Z,100595.34
2023-02-19T06:08:46.083Z,100588.00
2023-02-19T06:11:49.177Z,100586.88
2023-02-19T06:14:52.239Z,100594.72
2023-02-19T06:17:55.261Z,100583.91
2023-02-19T06:21:06.175Z,100575.09
2023-02-19T06:24:10.061Z,100581.97
2023-02-19T06:27:13.045Z,100566.06
2023-02-19T06:30:16.037Z,100564.13
2023-02-19T06:33:19.609Z,100566.06
2023-02-19T06:36:23.564Z,100575.44
2023-02-19T06:39:26.814Z,100577.41
2023-02-19T06:42:33.156Z,100571.94
2023-02-19T06:45:36.081Z,100563.72
2023-02-19T06:48:40.497Z,100564.78
2023-02-19T06:51:43.548Z,100569.22
2023-02-19T06:54:46.428Z,100570.28
2023-02-19T06:57:49.381Z,100566.81
2023-02-19T07:00:54.071Z,100566.44
2023-02-19T07:03:57.381Z,100578.53
2023-02-19T07:07:00.381Z,100563.75
2023-02-19T07:10:04.119Z,100556.84
2023-02-19T07:13:08.362Z,100556.78
2023-02-19T07:16:12.513Z,100552.13
2023-02-19T07:19:16.041Z,100557.91
2023-02-19T07:22:19.079Z,100541.19
2023-02-19T07:25:24.500Z,100539.91
2023-02-19T07:28:27.701Z,100543.50
2023-02-19T07:31:31.091Z,100549.84
2023-02-19T07:34:34.234Z,100558.97
2023-02-19T07:37:37.177Z,100554.41
2023-02-19T07:40:40.130Z,100550.56
2023-02-19T07:43:43.249Z,100546.97
2023-02-19T07:46:46.115Z,100544.66
2023-02-19T07:49:49.095Z,100549.19
2023-02-19T07:52:52.492Z,100553.16
2023-02-19T07:56:03.982Z,100543.41
2023-02-19T07:59:06.921Z,100555.41
2023-02-19T08:02:37.069Z,100562.53
2023-02-19T08:05:42.951Z,100564.13
2023-02-19T08:08:45.937Z,100574.84
2023-02-19T08:12:10.815Z,100573.22
2023-02-19T08:15:13.672Z,100570.13
2023-02-19T08:18:18.545Z,100551.75
2023-02-19T08:21:21.541Z,100546.31
2023-02-19T08:24:25.061Z,100547.78
2023-02-19T08:27:28.053Z,100535.28
2023-02-19T08:30:33.044Z,100521.69
2023-02-19T08:33:36.730Z,100506.34
2023-02-19T08:36:39.628Z,100531.47
2023-02-19T08:39:42.624Z,100549.25
2023-02-19T08:42:46.189Z,100544.03
2023-02-19T08:45:53.617Z,100553.72
2023-02-19T08:48:56.615Z,100551.81
2023-02-19T08:51:59.505Z,100538.38
2023-02-19T08:55:04.124Z,100550.44
2023-02-19T08:58:07.151Z,100564.28
2023-02-19T09:01:16.675Z,100567.69
2023-02-19T09:04:19.556Z,100562.91
2023-02-19T09:07:23.183Z,100576.31
2023-02-19T09:10:27.934Z,100578.78
2023-02-19T09:13:31.496Z,100560.69
2023-02-19T09:16:35.715Z,100545.81
2023-02-19T09:19:41.314Z,100555.81
2023-02-19T09:22:44.177Z,100547.97
2023-02-19T09:25:47.971Z,100552.16
2023-02-19T09:28:50.954Z,100558.03
2023-02-19T09:32:01.343Z,100556.31
2023-02-19T09:35:04.448Z,100557.13
2023-02-19T09:38:07.445Z,100553.47
2023-02-19T09:41:25.075Z,100548.38
2023-02-19T09:44:32.645Z,100554.47
2023-02-19T09:47:35.870Z,100545.41
2023-02-19T09:50:42.810Z,100545.34
2023-02-19T09:53:50.892Z,100554.47
2023-02-19T09:57:00.078Z,100543.44
2023-02-19T10:00:23.896Z,100539.81
2023-02-19T10:03:41.365Z,100534.41
2023-02-19T10:06:44.664Z,100521.13
2023-02-19T10:09:53.619Z,100512.88
2023-02-19T10:13:10.091Z,100508.09
2023-02-19T10:16:17.689Z,100511.75
2023-02-19T10:19:20.629Z,100502.94
2023-02-19T10:22:24.500Z,100514.50
2023-02-19T10:25:27.824Z,100519.06
2023-02-19T10:28:34.248Z,100534.00
2023-02-19T10:31:38.093Z,100521.75
2023-02-19T10:34:41.127Z,100523.41
2023-02-19T10:37:47.333Z,100508.22
2023-02-19T10:40:59.155Z,100498.63
2023-02-19T10:44:14.356Z,100496.78
2023-02-19T10:47:21.435Z,100488.34
2023-02-19T10:50:31.063Z,100490.72
2023-02-19T10:53:47.722Z,100482.88
2023-02-19T10:56:50.571Z,100490.53
2023-02-19T11:00:01.239Z,100491.00
2023-02-19T11:03:21.200Z,100478.19
2023-02-19T11:06:27.117Z,100457.56
2023-02-19T11:10:00.386Z,100472.94
2023-02-19T11:13:06.206Z,100468.97
2023-02-19T11:16:09.376Z,100456.50
2023-02-19T11:19:36.442Z,100448.53
2023-02-19T11:22:47.040Z,100456.81
2023-02-19T11:25:53.092Z,100457.91
2023-02-19T11:29:01.520Z,100456.31
2023-02-19T11:32:24.964Z,100443.41
2023-02-19T11:35:29.085Z,100433.25
2023-02-19T11:38:32.354Z,100431.00
2023-02-19T11:41:41.592Z,100434.31
2023-02-19T11:45:20.207Z,100427.47
2023-02-19T11:48:32.569Z,100431.25
2023-02-19T11:51:41.440Z,100415.97
2023-02-19T11:55:07.633Z,100413.47
2023-02-19T11:58:41.491Z,100426.84
2023-02-19T12:02:12.271Z,100420.00
2023-02-19T12:05:34.009Z,100401.00
2023-02-19T12:09:16.526Z,100392.63
2023-02-19T12:12:34.774Z,100391.66
2023-02-19T12:16:05.319Z,100405.31
2023-02-19T12:19:50.979Z,100426.00
2023-02-19T12:23:22.013Z,100433.47
2023-02-19T12:26:32.898Z,100430.91
2023-02-19T12:29:59.388Z,100435.13
2023-02-19T12:33:11.869Z,100427.31
2023-02-19T12:36:27.699Z,100421.09
2023-02-19T12:39:51.987Z,100435.69
2023-02-19T12:43:14.143Z,100438.03
2023-02-19T12:46:24.811Z,100442.22
2023-02-19T12:49:37.205Z,100456.50
2023-02-19T12:52:46.731Z,100456.09
2023-02-19T12:55:50.945Z,100423.41
2023-02-19T12:59:36.796Z,100434.06
2023-02-19T13:02:54.301Z,100422.69
2023-02-19T13:06:25.185Z,100409.88
2023-02-19T13:09:43.027Z,100405.47
2023-02-19T13:12:49.916Z,100426.41
2023-02-19T13:15:58.971Z,100423.59
2023-02-19T13:19:04.801Z,100420.78
2023-02-19T13:22:41.197Z,100433.19
2023-02-19T13:25:59.493Z,100428.06
2023-02-19T13:29:05.450Z,100423.22
2023-02-19T13:32:23.721Z,100430.31
2023-02-19T13:35:42.013Z,100432.63
2023-02-19T13:38:48.118Z,100431.66
2023-02-19T13:41:56.914Z,100429.13
2023-02-19T13:45:03.537Z,100422.25
2023-02-19T13:48:33.214Z,100421.38
2023-02-19T13:51:39.507Z,100415.69
2023-02-19T13:54:48.944Z,100403.09
2023-02-19T13:57:53.760Z,100420.94
2023-02-19T14:01:14.661Z,100395.75
2023-02-19T14:04:43.721Z,100389.75
2023-02-19T14:07:51.224Z,100383.47
2023-02-19T14:11:02.655Z,100382.16
2023-02-19T14:14:33.940Z,100382.03
2023-02-19T14:17:39.084Z,100385.66
2023-02-19T14:20:45.428Z,100393.84
2023-02-19T14:23:58.450Z,100403.72
2023-02-19T14:27:02.568Z,100406.03
2023-02-19T14:30:11.895Z,100412.47
2023-02-19T14:33:18.915Z,100415.78
2023-02-19T14:36:49.137Z,100410.66
2023-02-19T14:39:54.688Z,100419.94
2023-02-19T14:43:01.125Z,100423.22
2023-02-19T14:46:35.001Z,100427.06
2023-02-19T14:49:48.215Z,100426.50
2023-02-19T14:52:56.725Z,100430.78
2023-02-19T14:56:00.339Z,100436.38
2023-02-19T14:59:08.824Z,100443.38
2023-02-19T15:02:17.893Z,100436.56
2023-02-19T15:05:26.337Z,100460.66
2023-02-19T15:08:35.133Z,100452.44
2023-02-19T15:11:43.450Z,100456.25
2023-02-19T15:14:48.850Z,100462.50
2023-02-19T15:17:54.423Z,100475.72
2023-02-19T15:21:03.120Z,100461.22
2023-02-19T15:24:07.229Z,100475.38
2023-02-19T15:27:18.519Z,100474.88
2023-02-19T15:30:29.496Z,100479.06
2023-02-19T15:33:32.728Z,100482.94
2023-02-19T15:36:35.673Z,100490.03
2023-02-19T15:39:44.077Z,100493.47
2023-02-19T15:42:47.919Z,100490.78
2023-02-19T15:45:54.524Z,100482.28
2023-02-19T15:49:08.292Z,100500.91
2023-02-19T15:52:19.189Z,100511.19
2023-02-19T15:55:26.169Z,100515.06
2023-02-19T15:58:45.738Z,100515.50
2023-02-19T16:01:49.504Z,100526.25
2023-02-19T16:04:52.646Z,100524.63
2023-02-19T16:08:17.749Z,100520.88
2023-02-19T16:11:23.599Z,100532.56
2023-02-19T16:14:32.327Z,100531.03
2023-02-19T16:17:35.476Z,100544.09
2023-02-19T16:20:38.702Z,100539.47
2023-02-19T16:23:43.936Z,100547.56
2023-02-19T16:26:48.363Z,100553.91
2023-02-19T16:29:52.374Z,100579.50
2023-02-19T16:33:49.979Z,100584.34
2023-02-19T16:36:53.131Z,100588.06
2023-02-19T16:40:08.672Z,100598.97
2023-02-19T16:43:15.257Z,100590.94
2023-02-19T16:46:18.544Z,100606.69
2023-02-19T16:49:25.151Z,100617.66
2023-02-19T16:52:28.702Z,100618.66
2023-02-19T16:55:34.888Z,100616.78
2023-02-19T16:58:39.930Z,100634.31
2023-02-19T17:01:43.572Z,100640.69
2023-02-19T17:04:48.568Z,100637.66
2023-02-19T17:07:52.185Z,100653.22
2023-02-19T17:10:56.227Z,100653.06
2023-02-19T17:13:59.690Z,100654.75
2023-02-19T17:17:04.031Z,100660.63
2023-02-19T17:20:16.373Z,100665.56
2023-02-19T17:23:24.486Z,100663.25
2023-02-19T17:26:32.611Z,100669.31
2023-02-19T17:29:37.301Z,100678.09
2023-02-19T17:32:40.662Z,100700.28
2023-02-19T17:35:44.909Z,100711.03
2023-02-19T17:38:50.621Z,100718.66
2023-02-19T17:41:53.754Z,100726.75
2023-02-19T17:45:00.165Z,100738.75
2023-02-19T17:48:03.343Z,100751.09
2023-02-19T17:51:06.790Z,100762.50
2023-02-19T17:54:10.110Z,100765.75
2023-02-19T17:57:13.246Z,100774.41
2023-02-19T18:00:20.137Z,100783.44
2023-02-19T18:03:27.326Z,100783.91
2023-02-19T18:06:31.260Z,100802.66
2023-02-19T18:09:35.137Z,100809.03
2023-02-19T18:12:39.573Z,100822.31
2023-02-19T18:15:42.783Z,100830.91
2023-02-19T18:18:45.968Z,100830.91
2023-02-19T18:21:49.435Z,100829.00
2023-02-19T18:24:53.755Z,100836.38
2023-02-19T18:27:58.786Z,100830.97
2023-02-19T18:31:02.846Z,100832.13
2023-02-19T18:34:06.281Z,100836.78
2023-02-19T18:37:09.806Z,100839.88
2023-02-19T18:40:16.829Z,100831.38
2023-02-19T18:43:20.092Z,100821.69
2023-02-19T18:46:24.894Z,100816.28
2023-02-19T18:49:36.924Z,100819.38
2023-02-19T18:52:40.023Z,100814.72
2023-02-19T18:55:43.477Z,100823.63
2023-02-19T18:58:48.225Z,100827.09
2023-02-19T19:01:53.207Z,100829.44
2023-02-19T19:04:57.239Z,100824.78
2023-02-19T19:08:01.979Z,100827.91
2023-02-19T19:11:09.130Z,100823.25
2023-02-19T19:14:12.599Z,100839.13
2023-02-19T19:17:16.963Z,100844.91
2023-02-19T19:20:23.303Z,100843.75
2023-02-19T19:23:29.551Z,100843.00
2023-02-19T19:26:33.588Z,100831.75
2023-02-19T19:29:36.886Z,100828.28
2023-02-19T19:32:41.148Z,100830.97
2023-02-19T19:35:44.413Z,100840.28
2023-02-19T19:38:48.053Z,100828.69
2023-02-19T19:41:56.791Z,100828.66
2023-02-19T19:45:00.143Z,100824.78
2023-02-19T19:48:03.313Z,100843.75
2023-02-19T19:51:08.100Z,100845.31
2023-02-19T19:54:12.164Z,100848.00
2023-02-19T19:57:16.140Z,100861.56
2023-02-19T20:00:23.532Z,100869.66
2023-02-19T20:03:27.268Z,100877.41
2023-02-19T20:06:32.024Z,100877.81
2023-02-19T20:09:35.435Z,100884.00
2023-02-19T20:12:41.033Z,100872.31
2023-02-19T20:15:44.236Z,100866.56
2023-02-19T20:18:50.722Z,100863.41
2023-02-19T20:21:54.658Z,100855.69
2023-02-19T20:24:58.145Z,100863.41
2023-02-19T20:28:01.555Z,100866.88
2023-02-19T20:31:05.133Z,100878.50
2023-02-19T20:34:08.411Z,100890.06
2023-02-19T20:37:11.656Z,100891.22
2023-02-19T20:40:17.696Z,100891.56
2023-02-19T20:43:20.878Z,100892.72
2023-02-19T20:46:24.008Z,100914.06
2023-02-19T20:49:30.272Z,100915.13
2023-02-19T20:52:33.526Z,100913.25
2023-02-19T20:55:39.159Z,100917.09
2023-02-19T20:58:43.453Z,100917.47
2023-02-19T21:01:47.147Z,100906.66
2023-02-19T21:04:51.759Z,100919.38
2023-02-19T21:07:54.984Z,100924.06
2023-02-19T21:10:58.113Z,100923.25
2023-02-19T21:14:01.674Z,100915.53
2023-02-19T21:17:05.621Z,100920.56
2023-02-19T21:20:09.492Z,100927.16
2023-02-19T21:23:14.022Z,100936.00
2023-02-19T21:26:17.220Z,100925.94
2023-02-19T21:29:22.760Z,100930.94
2023-02-19T21:32:26.946Z,100925.16
2023-02-19T21:35:30.319Z,100943.25
2023-02-19T21:38:34.489Z,100942.09
2023-02-19T21:41:37.793Z,100935.84
2023-02-19T21:44:42.992Z,100929.22
2023-02-19T21:47:46.141Z,100944.69
2023-02-19T21:50:49.318Z,100945.84
2023-02-19T21:53:52.615Z,100938.03
2023-02-19T21:56:56.990Z,100960.03
2023-02-19T22:00:00.069Z,100977.38
2023-02-19T22:03:04.240Z,100980.03
2023-02-19T22:06:08.370Z,100987.78
2023-02-19T22:09:13.429Z,100992.69
2023-02-19T22:12:17.331Z,101009.63
2023-02-19T22:15:20.386Z,101021.19
2023-02-19T22:18:23.969Z,101029.63
2023-02-19T22:21:32.499Z,101044.25
2023-02-19T22:24:35.708Z,101051.25
2023-02-19T22:27:38.636Z,101068.59
2023-02-19T22:30:42.970Z,101073.59
2023-02-19T22:33:46.284Z,101077.75
2023-02-19T22:36:49.380Z,101072.69
2023-02-19T22:39:52.357Z,101075.34
2023-02-19T22:42:55.326Z,101071.84
2023-02-19T22:46:00.695Z,101071.38
2023-02-19T22:49:05.747Z,101077.53
2023-02-19T22:52:10.108Z,101079.72
2023-02-19T22:55:13.071Z,101083.28
2023-02-19T22:58:15.983Z,101090.09
2023-02-19T23:01:20.033Z,101100.09
2023-02-19T23:04:25.284Z,101106.97
2023-02-19T23:07:28.143Z,101101.63
2023-02-19T23:10:31.203Z,101104.91
2023-02-19T23:13:34.126Z,101114.25
2023-02-19T23:16:39.491Z,101117.56
2023-02-19T23:19:43.369Z,101123.75
2023-02-19T23:22:46.414Z,101130.56
2023-02-19T23:25:49.612Z,101142.06
2023-02-19T23:28:52.695Z,101140.63
2023-02-19T23:31:57.091Z,101152.84
2023-02-19T23:35:00.128Z,101157.31
2023-02-19T23:38:03.150Z,101171.81
2023-02-19T23:41:10.952Z,101182.84
2023-02-19T23:44:13.905Z,101185.19
2023-02-19T23:47:16.915Z,101190.88
2023-02-19T23:50:20.536Z,101204.00
2023-02-19T23:53:23.795Z,101203.94
2023-02-19T23:56:28.779Z,101201.94
2023-02-19T23:59:31.850Z,101197.25
